sensor_id;sensor_type;location;lat;lon;timestamp;P1;durP1;ratioP1;P2;durP2;ratioP2
63189;SDS011;49286;44.460;26.114;2023-04-25T00:00:40;19.85;;;13.50;;
63189;SDS011;49286;44.460;26.114;2023-04-25T00:03:06;17.92;;;14.15;;
63189;SDS011;49286;44.460;26.114;2023-04-25T00:05:33;16.15;;;14.45;;
63189;SDS011;49286;44.460;26.114;2023-04-25T00:07:59;17.50;;;13.65;;
63189;SDS011;49286;44.460;26.114;2023-04-25T00:10:25;16.08;;;14.00;;
63189;SDS011;49286;44.460;26.114;2023-04-25T00:12:50;21.25;;;15.52;;
63189;SDS011;49286;44.460;26.114;2023-04-25T00:15:16;15.57;;;13.98;;
63189;SDS011;49286;44.460;26.114;2023-04-25T00:17:42;19.27;;;15.50;;
63189;SDS011;49286;44.460;26.114;2023-04-25T00:20:08;21.60;;;15.63;;
63189;SDS011;49286;44.460;26.114;2023-04-25T00:22:34;18.90;;;15.77;;
63189;SDS011;49286;44.460;26.114;2023-04-25T00:25:02;21.02;;;13.43;;
63189;SDS011;49286;44.460;26.114;2023-04-25T00:27:31;16.80;;;14.02;;
63189;SDS011;49286;44.460;26.114;2023-04-25T00:29:57;16.50;;;14.02;;
63189;SDS011;49286;44.460;26.114;2023-04-25T00:32:22;17.95;;;13.00;;
63189;SDS011;49286;44.460;26.114;2023-04-25T00:34:48;18.35;;;14.90;;
63189;SDS011;49286;44.460;26.114;2023-04-25T00:37:13;18.70;;;14.13;;
63189;SDS011;49286;44.460;26.114;2023-04-25T00:39:39;20.30;;;13.27;;
63189;SDS011;49286;44.460;26.114;2023-04-25T00:42:04;20.52;;;14.73;;
63189;SDS011;49286;44.460;26.114;2023-04-25T00:44:30;17.65;;;14.20;;
63189;SDS011;49286;44.460;26.114;2023-04-25T00:46:57;15.93;;;13.52;;
63189;SDS011;49286;44.460;26.114;2023-04-25T00:49:23;23.60;;;13.30;;
63189;SDS011;49286;44.460;26.114;2023-04-25T00:51:48;18.48;;;14.30;;
63189;SDS011;49286;44.460;26.114;2023-04-25T00:54:14;20.17;;;14.73;;
63189;SDS011;49286;44.460;26.114;2023-04-25T00:56:40;16.35;;;14.60;;
63189;SDS011;49286;44.460;26.114;2023-04-25T00:59:06;16.92;;;14.80;;
63189;SDS011;49286;44.460;26.114;2023-04-25T01:01:33;22.30;;;15.30;;
63189;SDS011;49286;44.460;26.114;2023-04-25T01:04:00;23.83;;;14.55;;
63189;SDS011;49286;44.460;26.114;2023-04-25T01:06:26;17.38;;;14.45;;
63189;SDS011;49286;44.460;26.114;2023-04-25T01:08:52;18.45;;;14.63;;
63189;SDS011;49286;44.460;26.114;2023-04-25T01:11:18;24.27;;;16.25;;
63189;SDS011;49286;44.460;26.114;2023-04-25T01:13:44;20.58;;;14.30;;
63189;SDS011;49286;44.460;26.114;2023-04-25T01:16:09;17.98;;;14.77;;
63189;SDS011;49286;44.460;26.114;2023-04-25T01:18:35;34.53;;;15.70;;
63189;SDS011;49286;44.460;26.114;2023-04-25T01:21:12;26.20;;;14.50;;
63189;SDS011;49286;44.460;26.114;2023-04-25T01:23:38;22.33;;;17.02;;
63189;SDS011;49286;44.460;26.114;2023-04-25T01:26:05;18.70;;;15.52;;
63189;SDS011;49286;44.460;26.114;2023-04-25T01:28:33;21.08;;;16.50;;
63189;SDS011;49286;44.460;26.114;2023-04-25T01:30:59;18.90;;;14.50;;
63189;SDS011;49286;44.460;26.114;2023-04-25T01:33:26;20.17;;;16.65;;
63189;SDS011;49286;44.460;26.114;2023-04-25T01:35:51;23.77;;;16.05;;
63189;SDS011;49286;44.460;26.114;2023-04-25T01:38:17;25.27;;;17.83;;
63189;SDS011;49286;44.460;26.114;2023-04-25T01:40:42;24.90;;;18.15;;
63189;SDS011;49286;44.460;26.114;2023-04-25T01:43:10;21.08;;;17.75;;
63189;SDS011;49286;44.460;26.114;2023-04-25T01:45:40;21.67;;;16.95;;
63189;SDS011;49286;44.460;26.114;2023-04-25T01:48:07;26.92;;;19.13;;
63189;SDS011;49286;44.460;26.114;2023-04-25T01:50:33;19.63;;;17.30;;
63189;SDS011;49286;44.460;26.114;2023-04-25T01:52:59;24.85;;;18.23;;
63189;SDS011;49286;44.460;26.114;2023-04-25T01:55:26;25.88;;;19.30;;
63189;SDS011;49286;44.460;26.114;2023-04-25T01:57:52;32.72;;;17.63;;
63189;SDS011;49286;44.460;26.114;2023-04-25T02:00:18;20.00;;;16.50;;
63189;SDS011;49286;44.460;26.114;2023-04-25T02:02:43;20.75;;;17.30;;
63189;SDS011;49286;44.460;26.114;2023-04-25T02:05:09;22.63;;;18.17;;
63189;SDS011;49286;44.460;26.114;2023-04-25T02:07:34;21.65;;;18.45;;
63189;SDS011;49286;44.460;26.114;2023-04-25T02:10:00;25.77;;;17.58;;
63189;SDS011;49286;44.460;26.114;2023-04-25T02:12:27;26.33;;;16.50;;
63189;SDS011;49286;44.460;26.114;2023-04-25T02:14:53;21.40;;;15.65;;
63189;SDS011;49286;44.460;26.114;2023-04-25T02:17:18;19.23;;;13.52;;
63189;SDS011;49286;44.460;26.114;2023-04-25T02:19:44;24.60;;;12.35;;
63189;SDS011;49286;44.460;26.114;2023-04-25T02:22:10;16.92;;;12.80;;
63189;SDS011;49286;44.460;26.114;2023-04-25T02:24:35;23.83;;;13.25;;
63189;SDS011;49286;44.460;26.114;2023-04-25T02:27:01;15.75;;;13.10;;
63189;SDS011;49286;44.460;26.114;2023-04-25T02:29:26;17.30;;;13.40;;
63189;SDS011;49286;44.460;26.114;2023-04-25T02:31:52;15.10;;;11.98;;
63189;SDS011;49286;44.460;26.114;2023-04-25T02:34:17;18.00;;;12.55;;
63189;SDS011;49286;44.460;26.114;2023-04-25T02:36:43;15.48;;;11.80;;
63189;SDS011;49286;44.460;26.114;2023-04-25T02:39:08;16.58;;;10.57;;
63189;SDS011;49286;44.460;26.114;2023-04-25T02:41:34;14.15;;;9.95;;
63189;SDS011;49286;44.460;26.114;2023-04-25T02:43:59;15.90;;;10.75;;
63189;SDS011;49286;44.460;26.114;2023-04-25T02:46:25;13.50;;;10.25;;
63189;SDS011;49286;44.460;26.114;2023-04-25T02:48:50;15.40;;;12.70;;
63189;SDS011;49286;44.460;26.114;2023-04-25T02:51:16;21.30;;;11.93;;
63189;SDS011;49286;44.460;26.114;2023-04-25T02:53:41;19.83;;;12.35;;
63189;SDS011;49286;44.460;26.114;2023-04-25T02:56:07;14.95;;;10.38;;
63189;SDS011;49286;44.460;26.114;2023-04-25T02:58:32;15.77;;;9.48;;
63189;SDS011;49286;44.460;26.114;2023-04-25T03:00:58;17.90;;;10.88;;
63189;SDS011;49286;44.460;26.114;2023-04-25T03:03:23;15.43;;;10.32;;
63189;SDS011;49286;44.460;26.114;2023-04-25T03:05:49;27.02;;;10.10;;
63189;SDS011;49286;44.460;26.114;2023-04-25T03:08:16;16.35;;;9.27;;
63189;SDS011;49286;44.460;26.114;2023-04-25T03:10:42;14.90;;;9.27;;
63189;SDS011;49286;44.460;26.114;2023-04-25T03:13:07;25.45;;;11.38;;
63189;SDS011;49286;44.460;26.114;2023-04-25T03:15:34;11.90;;;9.73;;
63189;SDS011;49286;44.460;26.114;2023-04-25T03:18:00;15.07;;;10.55;;
63189;SDS011;49286;44.460;26.114;2023-04-25T03:20:26;16.48;;;10.68;;
63189;SDS011;49286;44.460;26.114;2023-04-25T03:22:52;14.13;;;10.90;;
63189;SDS011;49286;44.460;26.114;2023-04-25T03:25:17;15.23;;;10.70;;
63189;SDS011;49286;44.460;26.114;2023-04-25T03:27:43;19.90;;;11.73;;
63189;SDS011;49286;44.460;26.114;2023-04-25T03:30:09;15.63;;;11.18;;
63189;SDS011;49286;44.460;26.114;2023-04-25T03:32:34;15.52;;;11.45;;
63189;SDS011;49286;44.460;26.114;2023-04-25T03:35:00;18.55;;;12.02;;
63189;SDS011;49286;44.460;26.114;2023-04-25T03:37:26;17.83;;;12.93;;
63189;SDS011;49286;44.460;26.114;2023-04-25T03:39:51;18.48;;;12.40;;
63189;SDS011;49286;44.460;26.114;2023-04-25T03:42:17;17.38;;;11.77;;
63189;SDS011;49286;44.460;26.114;2023-04-25T03:44:42;18.85;;;11.85;;
63189;SDS011;49286;44.460;26.114;2023-04-25T03:47:08;18.63;;;13.13;;
63189;SDS011;49286;44.460;26.114;2023-04-25T03:49:34;14.35;;;10.88;;
63189;SDS011;49286;44.460;26.114;2023-04-25T03:52:00;22.30;;;12.40;;
63189;SDS011;49286;44.460;26.114;2023-04-25T03:54:26;16.08;;;13.30;;
63189;SDS011;49286;44.460;26.114;2023-04-25T03:56:51;19.95;;;12.73;;
63189;SDS011;49286;44.460;26.114;2023-04-25T03:59:17;20.10;;;12.93;;
63189;SDS011;49286;44.460;26.114;2023-04-25T04:01:42;15.68;;;12.57;;
63189;SDS011;49286;44.460;26.114;2023-04-25T04:04:08;19.10;;;12.30;;
63189;SDS011;49286;44.460;26.114;2023-04-25T04:06:33;14.60;;;11.73;;
63189;SDS011;49286;44.460;26.114;2023-04-25T04:08:59;15.18;;;12.73;;
63189;SDS011;49286;44.460;26.114;2023-04-25T04:11:24;16.27;;;12.95;;
63189;SDS011;49286;44.460;26.114;2023-04-25T04:13:51;20.08;;;14.45;;
63189;SDS011;49286;44.460;26.114;2023-04-25T04:16:16;15.60;;;12.63;;
63189;SDS011;49286;44.460;26.114;2023-04-25T04:18:41;15.10;;;12.52;;
63189;SDS011;49286;44.460;26.114;2023-04-25T04:21:07;21.25;;;14.13;;
63189;SDS011;49286;44.460;26.114;2023-04-25T04:23:32;23.40;;;14.77;;
63189;SDS011;49286;44.460;26.114;2023-04-25T04:25:58;16.42;;;12.52;;
63189;SDS011;49286;44.460;26.114;2023-04-25T04:28:24;16.85;;;13.93;;
63189;SDS011;49286;44.460;26.114;2023-04-25T04:30:51;22.45;;;13.98;;
63189;SDS011;49286;44.460;26.114;2023-04-25T04:33:17;24.60;;;13.23;;
63189;SDS011;49286;44.460;26.114;2023-04-25T04:35:44;19.98;;;12.55;;
63189;SDS011;49286;44.460;26.114;2023-04-25T04:38:12;17.33;;;12.55;;
63189;SDS011;49286;44.460;26.114;2023-04-25T04:40:39;15.25;;;11.93;;
63189;SDS011;49286;44.460;26.114;2023-04-25T04:43:06;16.08;;;12.15;;
63189;SDS011;49286;44.460;26.114;2023-04-25T04:45:33;22.88;;;14.80;;
63189;SDS011;49286;44.460;26.114;2023-04-25T04:47:59;17.08;;;12.52;;
63189;SDS011;49286;44.460;26.114;2023-04-25T04:50:24;29.55;;;12.50;;
63189;SDS011;49286;44.460;26.114;2023-04-25T04:52:53;21.55;;;12.48;;
63189;SDS011;49286;44.460;26.114;2023-04-25T04:55:20;18.27;;;12.75;;
63189;SDS011;49286;44.460;26.114;2023-04-25T04:57:45;28.13;;;14.88;;
63189;SDS011;49286;44.460;26.114;2023-04-25T05:00:11;25.88;;;15.02;;
63189;SDS011;49286;44.460;26.114;2023-04-25T05:02:37;31.23;;;16.17;;
63189;SDS011;49286;44.460;26.114;2023-04-25T05:05:04;76.13;;;67.63;;
63189;SDS011;49286;44.460;26.114;2023-04-25T05:07:30;40.88;;;19.27;;
63189;SDS011;49286;44.460;26.114;2023-04-25T05:09:55;40.30;;;20.10;;
63189;SDS011;49286;44.460;26.114;2023-04-25T05:12:21;29.90;;;18.60;;
63189;SDS011;49286;44.460;26.114;2023-04-25T05:14:46;23.73;;;15.00;;
63189;SDS011;49286;44.460;26.114;2023-04-25T05:17:12;41.70;;;17.80;;
63189;SDS011;49286;44.460;26.114;2023-04-25T05:19:37;23.33;;;15.27;;
63189;SDS011;49286;44.460;26.114;2023-04-25T05:22:04;21.55;;;15.55;;
63189;SDS011;49286;44.460;26.114;2023-04-25T05:24:30;22.85;;;16.67;;
63189;SDS011;49286;44.460;26.114;2023-04-25T05:26:56;25.42;;;16.13;;
63189;SDS011;49286;44.460;26.114;2023-04-25T05:29:21;21.25;;;15.07;;
63189;SDS011;49286;44.460;26.114;2023-04-25T05:31:47;30.90;;;16.73;;
63189;SDS011;49286;44.460;26.114;2023-04-25T05:34:13;25.48;;;17.10;;
63189;SDS011;49286;44.460;26.114;2023-04-25T05:36:38;22.80;;;17.98;;
63189;SDS011;49286;44.460;26.114;2023-04-25T05:39:04;32.97;;;19.42;;
63189;SDS011;49286;44.460;26.114;2023-04-25T05:41:31;27.58;;;18.98;;
63189;SDS011;49286;44.460;26.114;2023-04-25T05:43:56;31.63;;;19.70;;
63189;SDS011;49286;44.460;26.114;2023-04-25T05:46:22;19.63;;;17.30;;
63189;SDS011;49286;44.460;26.114;2023-04-25T05:48:47;27.83;;;19.13;;
63189;SDS011;49286;44.460;26.114;2023-04-25T05:51:13;30.27;;;20.63;;
63189;SDS011;49286;44.460;26.114;2023-04-25T05:53:38;31.00;;;18.98;;
63189;SDS011;49286;44.460;26.114;2023-04-25T05:56:04;34.92;;;21.63;;
63189;SDS011;49286;44.460;26.114;2023-04-25T05:58:29;28.95;;;22.67;;
63189;SDS011;49286;44.460;26.114;2023-04-25T06:00:55;27.65;;;21.20;;
63189;SDS011;49286;44.460;26.114;2023-04-25T06:03:20;29.30;;;20.17;;
63189;SDS011;49286;44.460;26.114;2023-04-25T06:05:46;24.90;;;20.75;;
63189;SDS011;49286;44.460;26.114;2023-04-25T06:08:11;28.80;;;21.17;;
63189;SDS011;49286;44.460;26.114;2023-04-25T06:10:37;34.10;;;23.65;;
63189;SDS011;49286;44.460;26.114;2023-04-25T06:13:03;30.25;;;24.13;;
63189;SDS011;49286;44.460;26.114;2023-04-25T06:15:30;106.32;;;95.18;;
63189;SDS011;49286;44.460;26.114;2023-04-25T06:17:58;174.82;;;154.93;;
63189;SDS011;49286;44.460;26.114;2023-04-25T06:20:24;50.95;;;41.50;;
63189;SDS011;49286;44.460;26.114;2023-04-25T06:22:50;81.03;;;61.78;;
63189;SDS011;49286;44.460;26.114;2023-04-25T06:25:19;76.53;;;64.45;;
63189;SDS011;49286;44.460;26.114;2023-04-25T06:27:45;33.00;;;21.90;;
63189;SDS011;49286;44.460;26.114;2023-04-25T06:30:10;34.60;;;26.58;;
63189;SDS011;49286;44.460;26.114;2023-04-25T06:32:37;31.45;;;24.27;;
63189;SDS011;49286;44.460;26.114;2023-04-25T06:35:04;37.53;;;24.23;;
63189;SDS011;49286;44.460;26.114;2023-04-25T06:37:30;31.10;;;24.60;;
63189;SDS011;49286;44.460;26.114;2023-04-25T06:39:55;32.67;;;22.77;;
63189;SDS011;49286;44.460;26.114;2023-04-25T06:42:21;39.97;;;26.17;;
63189;SDS011;49286;44.460;26.114;2023-04-25T06:44:46;29.30;;;22.38;;
63189;SDS011;49286;44.460;26.114;2023-04-25T06:47:12;30.50;;;23.00;;
63189;SDS011;49286;44.460;26.114;2023-04-25T06:49:38;30.75;;;21.58;;
63189;SDS011;49286;44.460;26.114;2023-04-25T06:52:04;30.08;;;21.08;;
63189;SDS011;49286;44.460;26.114;2023-04-25T06:54:29;40.33;;;24.95;;
63189;SDS011;49286;44.460;26.114;2023-04-25T06:56:55;34.90;;;23.95;;
63189;SDS011;49286;44.460;26.114;2023-04-25T06:59:21;35.67;;;27.63;;
63189;SDS011;49286;44.460;26.114;2023-04-25T07:01:47;33.50;;;26.42;;
63189;SDS011;49286;44.460;26.114;2023-04-25T07:04:12;30.55;;;26.55;;
63189;SDS011;49286;44.460;26.114;2023-04-25T07:06:38;38.85;;;25.13;;
63189;SDS011;49286;44.460;26.114;2023-04-25T07:09:07;38.58;;;27.13;;
63189;SDS011;49286;44.460;26.114;2023-04-25T07:11:34;40.58;;;27.83;;
63189;SDS011;49286;44.460;26.114;2023-04-25T07:14:00;37.70;;;25.60;;
63189;SDS011;49286;44.460;26.114;2023-04-25T07:16:26;32.58;;;28.90;;
63189;SDS011;49286;44.460;26.114;2023-04-25T07:18:51;43.40;;;28.23;;
63189;SDS011;49286;44.460;26.114;2023-04-25T07:21:17;30.55;;;24.45;;
63189;SDS011;49286;44.460;26.114;2023-04-25T07:23:42;29.23;;;25.88;;
63189;SDS011;49286;44.460;26.114;2023-04-25T07:26:08;33.28;;;23.60;;
63189;SDS011;49286;44.460;26.114;2023-04-25T07:28:40;32.00;;;25.88;;
63189;SDS011;49286;44.460;26.114;2023-04-25T07:31:08;34.30;;;24.85;;
63189;SDS011;49286;44.460;26.114;2023-04-25T07:33:48;38.35;;;26.58;;
63189;SDS011;49286;44.460;26.114;2023-04-25T07:36:15;42.90;;;27.38;;
63189;SDS011;49286;44.460;26.114;2023-04-25T07:38:42;38.97;;;24.55;;
63189;SDS011;49286;44.460;26.114;2023-04-25T07:41:09;38.17;;;25.73;;
63189;SDS011;49286;44.460;26.114;2023-04-25T07:43:36;35.50;;;27.85;;
63189;SDS011;49286;44.460;26.114;2023-04-25T07:46:03;31.73;;;25.65;;
63189;SDS011;49286;44.460;26.114;2023-04-25T07:48:29;38.10;;;27.80;;
63189;SDS011;49286;44.460;26.114;2023-04-25T07:51:01;34.10;;;25.20;;
63189;SDS011;49286;44.460;26.114;2023-04-25T07:53:31;37.38;;;28.73;;
63189;SDS011;49286;44.460;26.114;2023-04-25T07:55:59;41.42;;;28.58;;
63189;SDS011;49286;44.460;26.114;2023-04-25T07:58:25;39.13;;;31.05;;
63189;SDS011;49286;44.460;26.114;2023-04-25T08:00:50;111.63;;;61.83;;
63189;SDS011;49286;44.460;26.114;2023-04-25T08:03:16;48.20;;;33.28;;
63189;SDS011;49286;44.460;26.114;2023-04-25T08:05:41;45.15;;;30.35;;
63189;SDS011;49286;44.460;26.114;2023-04-25T08:08:07;42.25;;;33.58;;
63189;SDS011;49286;44.460;26.114;2023-04-25T08:10:33;47.58;;;31.95;;
63189;SDS011;49286;44.460;26.114;2023-04-25T08:12:59;45.83;;;34.75;;
63189;SDS011;49286;44.460;26.114;2023-04-25T08:15:25;49.38;;;36.67;;
63189;SDS011;49286;44.460;26.114;2023-04-25T08:17:52;40.25;;;33.70;;
63189;SDS011;49286;44.460;26.114;2023-04-25T08:20:18;42.55;;;34.88;;
63189;SDS011;49286;44.460;26.114;2023-04-25T08:22:44;41.58;;;34.97;;
63189;SDS011;49286;44.460;26.114;2023-04-25T08:25:09;46.35;;;36.22;;
63189;SDS011;49286;44.460;26.114;2023-04-25T08:27:35;43.95;;;36.97;;
63189;SDS011;49286;44.460;26.114;2023-04-25T08:30:01;48.42;;;37.75;;
63189;SDS011;49286;44.460;26.114;2023-04-25T08:32:28;53.83;;;38.85;;
63189;SDS011;49286;44.460;26.114;2023-04-25T08:34:53;49.22;;;37.83;;
63189;SDS011;49286;44.460;26.114;2023-04-25T08:37:20;50.65;;;37.45;;
63189;SDS011;49286;44.460;26.114;2023-04-25T08:39:46;45.95;;;37.20;;
63189;SDS011;49286;44.460;26.114;2023-04-25T08:42:13;39.70;;;32.70;;
63189;SDS011;49286;44.460;26.114;2023-04-25T08:44:40;44.85;;;32.40;;
63189;SDS011;49286;44.460;26.114;2023-04-25T08:47:05;36.15;;;32.15;;
63189;SDS011;49286;44.460;26.114;2023-04-25T08:49:31;38.70;;;34.38;;
63189;SDS011;49286;44.460;26.114;2023-04-25T08:52:03;42.10;;;30.48;;
63189;SDS011;49286;44.460;26.114;2023-04-25T08:54:32;40.30;;;31.50;;
63189;SDS011;49286;44.460;26.114;2023-04-25T08:57:01;38.03;;;30.63;;
63189;SDS011;49286;44.460;26.114;2023-04-25T08:59:27;41.63;;;30.83;;
63189;SDS011;49286;44.460;26.114;2023-04-25T09:01:53;37.30;;;33.20;;
63189;SDS011;49286;44.460;26.114;2023-04-25T09:04:19;38.40;;;30.95;;
63189;SDS011;49286;44.460;26.114;2023-04-25T09:06:46;35.65;;;29.70;;
63189;SDS011;49286;44.460;26.114;2023-04-25T09:09:12;44.30;;;33.67;;
63189;SDS011;49286;44.460;26.114;2023-04-25T09:11:38;42.88;;;31.05;;
63189;SDS011;49286;44.460;26.114;2023-04-25T09:14:37;32.92;;;29.38;;
63189;SDS011;49286;44.460;26.114;2023-04-25T09:19:24;48.28;;;30.60;;
63189;SDS011;49286;44.460;26.114;2023-04-25T09:21:58;50.28;;;30.88;;
63189;SDS011;49286;44.460;26.114;2023-04-25T09:24:32;38.95;;;32.13;;
63189;SDS011;49286;44.460;26.114;2023-04-25T09:27:02;34.53;;;30.80;;
63189;SDS011;49286;44.460;26.114;2023-04-25T09:29:35;38.65;;;29.02;;
63189;SDS011;49286;44.460;26.114;2023-04-25T09:34:48;39.20;;;30.05;;
63189;SDS011;49286;44.460;26.114;2023-04-25T09:37:19;35.10;;;30.65;;
63189;SDS011;49286;44.460;26.114;2023-04-25T09:39:45;39.25;;;31.08;;
63189;SDS011;49286;44.460;26.114;2023-04-25T09:42:13;34.28;;;30.75;;
63189;SDS011;49286;44.460;26.114;2023-04-25T09:44:44;39.70;;;32.25;;
63189;SDS011;49286;44.460;26.114;2023-04-25T09:47:11;36.95;;;30.13;;
63189;SDS011;49286;44.460;26.114;2023-04-25T09:49:41;34.00;;;28.55;;
63189;SDS011;49286;44.460;26.114;2023-04-25T09:52:08;36.03;;;30.42;;
63189;SDS011;49286;44.460;26.114;2023-04-25T09:54:33;36.42;;;29.65;;
63189;SDS011;49286;44.460;26.114;2023-04-25T09:57:02;37.90;;;30.83;;
63189;SDS011;49286;44.460;26.114;2023-04-25T09:59:38;37.83;;;31.15;;
63189;SDS011;49286;44.460;26.114;2023-04-25T10:02:07;39.08;;;26.08;;
63189;SDS011;49286;44.460;26.114;2023-04-25T10:04:34;33.10;;;29.13;;
63189;SDS011;49286;44.460;26.114;2023-04-25T10:07:07;30.80;;;26.45;;
63189;SDS011;49286;44.460;26.114;2023-04-25T10:09:35;32.95;;;29.23;;
63189;SDS011;49286;44.460;26.114;2023-04-25T10:12:04;33.03;;;28.45;;
63189;SDS011;49286;44.460;26.114;2023-04-25T10:14:31;36.20;;;29.65;;
63189;SDS011;49286;44.460;26.114;2023-04-25T10:16:57;31.88;;;28.50;;
63189;SDS011;49286;44.460;26.114;2023-04-25T10:19:23;33.22;;;29.10;;
63189;SDS011;49286;44.460;26.114;2023-04-25T10:24:27;34.67;;;29.05;;
63189;SDS011;49286;44.460;26.114;2023-04-25T10:26:53;33.85;;;28.73;;
63189;SDS011;49286;44.460;26.114;2023-04-25T10:29:22;40.25;;;32.08;;
63189;SDS011;49286;44.460;26.114;2023-04-25T10:31:49;41.22;;;33.33;;
63189;SDS011;49286;44.460;26.114;2023-04-25T10:34:15;41.30;;;36.85;;
63189;SDS011;49286;44.460;26.114;2023-04-25T10:36:42;41.47;;;36.55;;
63189;SDS011;49286;44.460;26.114;2023-04-25T10:39:07;40.03;;;34.70;;
63189;SDS011;49286;44.460;26.114;2023-04-25T10:41:46;38.85;;;33.63;;
63189;SDS011;49286;44.460;26.114;2023-04-25T10:44:16;243.27;;;76.35;;
63189;SDS011;49286;44.460;26.114;2023-04-25T10:46:41;107.20;;;39.53;;
63189;SDS011;49286;44.460;26.114;2023-04-25T10:49:09;43.70;;;33.35;;
63189;SDS011;49286;44.460;26.114;2023-04-25T10:51:36;33.33;;;27.95;;
63189;SDS011;49286;44.460;26.114;2023-04-25T10:54:02;32.03;;;28.08;;
63189;SDS011;49286;44.460;26.114;2023-04-25T10:56:39;39.10;;;29.30;;
63189;SDS011;49286;44.460;26.114;2023-04-25T10:59:10;31.75;;;28.35;;
63189;SDS011;49286;44.460;26.114;2023-04-25T11:01:41;30.65;;;27.42;;
63189;SDS011;49286;44.460;26.114;2023-04-25T11:04:33;30.48;;;27.25;;
63189;SDS011;49286;44.460;26.114;2023-04-25T11:09:32;35.30;;;26.90;;
63189;SDS011;49286;44.460;26.114;2023-04-25T11:11:58;26.80;;;24.00;;
63189;SDS011;49286;44.460;26.114;2023-04-25T11:14:25;23.90;;;21.25;;
63189;SDS011;49286;44.460;26.114;2023-04-25T11:16:58;27.25;;;24.33;;
63189;SDS011;49286;44.460;26.114;2023-04-25T11:19:25;33.10;;;23.10;;
63189;SDS011;49286;44.460;26.114;2023-04-25T11:21:54;20.23;;;17.50;;
63189;SDS011;49286;44.460;26.114;2023-04-25T11:24:25;102.43;;;35.55;;
63189;SDS011;49286;44.460;26.114;2023-04-25T11:27:00;19.58;;;15.48;;
63189;SDS011;49286;44.460;26.114;2023-04-25T11:29:31;18.55;;;16.58;;
63189;SDS011;49286;44.460;26.114;2023-04-25T11:31:57;22.35;;;15.27;;
63189;SDS011;49286;44.460;26.114;2023-04-25T11:34:23;17.60;;;15.80;;
63189;SDS011;49286;44.460;26.114;2023-04-25T11:36:50;21.80;;;16.95;;
63189;SDS011;49286;44.460;26.114;2023-04-25T11:39:18;18.85;;;15.95;;
63189;SDS011;49286;44.460;26.114;2023-04-25T11:41:44;22.75;;;17.75;;
63189;SDS011;49286;44.460;26.114;2023-04-25T11:44:10;20.02;;;17.60;;
63189;SDS011;49286;44.460;26.114;2023-04-25T11:46:35;17.95;;;15.68;;
63189;SDS011;49286;44.460;26.114;2023-04-25T11:49:01;21.60;;;17.33;;
63189;SDS011;49286;44.460;26.114;2023-04-25T11:51:27;19.10;;;14.80;;
63189;SDS011;49286;44.460;26.114;2023-04-25T11:53:52;23.55;;;15.48;;
63189;SDS011;49286;44.460;26.114;2023-04-25T11:56:18;17.10;;;15.32;;
63189;SDS011;49286;44.460;26.114;2023-04-25T11:58:58;23.55;;;13.40;;
63189;SDS011;49286;44.460;26.114;2023-04-25T12:01:27;15.45;;;12.93;;
63189;SDS011;49286;44.460;26.114;2023-04-25T12:03:54;18.05;;;14.50;;
63189;SDS011;49286;44.460;26.114;2023-04-25T12:06:19;23.40;;;14.40;;
63189;SDS011;49286;44.460;26.114;2023-04-25T12:09:03;18.05;;;15.02;;
63189;SDS011;49286;44.460;26.114;2023-04-25T12:11:40;19.05;;;15.90;;
63189;SDS011;49286;44.460;26.114;2023-04-25T12:14:06;61.70;;;24.67;;
63189;SDS011;49286;44.460;26.114;2023-04-25T12:16:45;8.07;;;4.75;;
63189;SDS011;49286;44.460;26.114;2023-04-25T12:19:15;16.95;;;4.43;;
63189;SDS011;49286;44.460;26.114;2023-04-25T12:21:42;61.90;;;34.05;;
63189;SDS011;49286;44.460;26.114;2023-04-25T12:26:51;19.50;;;11.45;;
63189;SDS011;49286;44.460;26.114;2023-04-25T12:29:22;5.93;;;3.47;;
63189;SDS011;49286;44.460;26.114;2023-04-25T12:31:49;7.88;;;3.60;;
63189;SDS011;49286;44.460;26.114;2023-04-25T12:34:16;5.53;;;3.35;;
63189;SDS011;49286;44.460;26.114;2023-04-25T12:36:42;13.02;;;5.40;;
63189;SDS011;49286;44.460;26.114;2023-04-25T12:39:08;8.90;;;6.40;;
63189;SDS011;49286;44.460;26.114;2023-04-25T12:41:34;10.38;;;4.53;;
63189;SDS011;49286;44.460;26.114;2023-04-25T12:44:00;9.63;;;4.25;;
63189;SDS011;49286;44.460;26.114;2023-04-25T12:46:25;6.53;;;3.78;;
63189;SDS011;49286;44.460;26.114;2023-04-25T12:48:50;8.13;;;4.38;;
63189;SDS011;49286;44.460;26.114;2023-04-25T12:51:16;9.18;;;5.30;;
63189;SDS011;49286;44.460;26.114;2023-04-25T12:53:41;7.28;;;3.60;;
63189;SDS011;49286;44.460;26.114;2023-04-25T12:56:07;9.00;;;4.53;;
63189;SDS011;49286;44.460;26.114;2023-04-25T12:58:33;9.10;;;5.35;;
63189;SDS011;49286;44.460;26.114;2023-04-25T13:00:59;12.48;;;4.95;;
63189;SDS011;49286;44.460;26.114;2023-04-25T13:03:24;13.30;;;7.15;;
63189;SDS011;49286;44.460;26.114;2023-04-25T13:05:50;11.13;;;7.13;;
63189;SDS011;49286;44.460;26.114;2023-04-25T13:08:20;15.93;;;9.13;;
63189;SDS011;49286;44.460;26.114;2023-04-25T13:10:47;17.80;;;11.23;;
63189;SDS011;49286;44.460;26.114;2023-04-25T13:13:13;20.63;;;10.30;;
63189;SDS011;49286;44.460;26.114;2023-04-25T13:15:38;20.90;;;10.52;;
63189;SDS011;49286;44.460;26.114;2023-04-25T13:18:04;12.75;;;9.45;;
63189;SDS011;49286;44.460;26.114;2023-04-25T13:20:30;21.50;;;10.13;;
63189;SDS011;49286;44.460;26.114;2023-04-25T13:22:56;16.95;;;12.98;;
63189;SDS011;49286;44.460;26.114;2023-04-25T13:25:22;22.20;;;14.88;;
63189;SDS011;49286;44.460;26.114;2023-04-25T13:27:48;16.95;;;13.15;;
63189;SDS011;49286;44.460;26.114;2023-04-25T13:30:13;15.90;;;12.35;;
63189;SDS011;49286;44.460;26.114;2023-04-25T13:32:39;22.38;;;18.42;;
63189;SDS011;49286;44.460;26.114;2023-04-25T13:35:08;26.20;;;17.63;;
63189;SDS011;49286;44.460;26.114;2023-04-25T13:37:39;27.60;;;18.20;;
63189;SDS011;49286;44.460;26.114;2023-04-25T13:40:05;14.05;;;11.73;;
63189;SDS011;49286;44.460;26.114;2023-04-25T13:42:34;11.60;;;8.32;;
63189;SDS011;49286;44.460;26.114;2023-04-25T13:45:00;20.35;;;8.27;;
63189;SDS011;49286;44.460;26.114;2023-04-25T13:47:26;11.80;;;7.85;;
63189;SDS011;49286;44.460;26.114;2023-04-25T13:49:52;12.73;;;7.38;;
63189;SDS011;49286;44.460;26.114;2023-04-25T13:52:17;12.20;;;8.52;;
63189;SDS011;49286;44.460;26.114;2023-04-25T13:54:43;15.98;;;9.40;;
63189;SDS011;49286;44.460;26.114;2023-04-25T13:57:09;16.30;;;9.32;;
63189;SDS011;49286;44.460;26.114;2023-04-25T13:59:36;11.15;;;8.40;;
63189;SDS011;49286;44.460;26.114;2023-04-25T14:02:01;14.77;;;6.35;;
63189;SDS011;49286;44.460;26.114;2023-04-25T14:04:27;7.00;;;4.72;;
63189;SDS011;49286;44.460;26.114;2023-04-25T14:06:52;11.23;;;6.57;;
63189;SDS011;49286;44.460;26.114;2023-04-25T14:09:18;10.60;;;5.55;;
63189;SDS011;49286;44.460;26.114;2023-04-25T14:11:45;7.40;;;4.53;;
63189;SDS011;49286;44.460;26.114;2023-04-25T14:14:10;10.93;;;5.78;;
63189;SDS011;49286;44.460;26.114;2023-04-25T14:16:37;5.20;;;3.70;;
63189;SDS011;49286;44.460;26.114;2023-04-25T14:19:03;8.60;;;4.70;;
63189;SDS011;49286;44.460;26.114;2023-04-25T14:21:28;6.93;;;4.18;;